• Join FlightAware (Why Join?)
  • Login
  • US Flag 
12:34PM EDT


 

Airport Tracker/Info


-or-


 

Live Flight TrackerFlight Track Log ✈ ASQ4976 ✈ 27-Apr-2013 ✈ KDTW - KBOS

Flight Track Log - Related Links

Times and Time Zones

All times are in EDT time to prevent confusion due to time zone crossing. See the ASQ4976 flight status page for this flight to view local times or setup timezone preferences in your user account.

Time Position Orientation Groundspeed Altitude Reporting Facility
EDT Latitude Longitude Course Direction KTS MPH feet Rate Location/Type
07:42AM 42.2036 -83.3556 178° South 164 189 1,300  Level Cleveland Center
07:43AM 42.1453 -83.3528 178° South 225 259 4,000 2,460 Climbing Cleveland Center
07:44AM 42.0856 -83.3222 159° South 256 295 6,600 2,460 Climbing Cleveland Center
07:46AM 42.1211 -83.1475 75° East 293 337 10,900 2,040 Climbing Cleveland Center
07:47AM 42.1608 -83.0369 64° Northeast 306 352 12,400 1,500 Climbing Cleveland Center
07:48AM 42.2053 -82.9125 64° Northeast 336 387 14,000 1,560 Climbing Cleveland Center
07:49AM 42.2517 -82.7825 64° Northeast 363 418 15,600 1,680 Climbing Cleveland Center
07:50AM 42.2978 -82.6464 65° Northeast 378 435 17,400 1,440 Climbing Cleveland Center
07:51AM 42.3461 -82.5103 64° Northeast 395 455 18,500 1,200 Climbing Cleveland Center
07:52AM 42.3631 -82.3564 81° East 395 455 19,900 1,260 Climbing Cleveland Center
07:53AM 42.3572 -82.1931 93° East 408 470 21,100 1,200 Climbing Cleveland Center
07:54AM 42.3489 -82.0411 94° East 426 490 22,300 1,080 Climbing Cleveland Center
07:55AM 42.3425 -81.8725 93° East 450 518 23,300 960 Climbing Cleveland Center
07:56AM 42.3358 -81.7011 93° East 457 526 24,300 960 Climbing Cleveland Center
07:57AM 42.3253 -81.5100 94° East 462 532 25,300 1,020 Climbing Cleveland Center
07:58AM 42.3161 -81.3328 94° East 462 532 26,400 1,020 Climbing Cleveland Center
07:59AM 42.3067 -81.1586 94° East 462 532 27,400 960 Climbing Cleveland Center
08:00AM 42.2992 -80.9817 93° East 469 540 28,400 960 Climbing Cleveland Center
08:01AM 42.2911 -80.8050 93° East 469 540 29,400 960 Climbing Cleveland Center
08:02AM 42.2808 -80.6281 94° East 469 540 30,400 960 Climbing Cleveland Center
08:03AM 42.2725 -80.4486 94° East 469 540 31,400 1,020 Climbing Cleveland Center
08:04AM 42.2597 -80.2744 96° East 469 540 32,500 780 Climbing Cleveland Center
08:05AM 42.2614 -80.1203 89° East 459 528 33,000 240 Climbing Cleveland Center
08:06AM 42.2833 -79.9292 81° East 465 535 33,000  Level Cleveland Center
08:07AM 42.3031 -79.7522 81° East 471 542 33,000  Level Cleveland Center
08:08AM 42.3164 -79.5864 84° East 480 552 33,000  Level Cleveland Center
08:09AM 42.3356 -79.4064 82° East 480 552 33,000  Level Cleveland Center
08:10AM 42.3522 -79.2261 83° East 480 552 33,000  Level Cleveland Center
08:11AM 42.3708 -79.0403 82° East 489 563 33,000  Level Cleveland Center
08:12AM 42.3889 -78.8600 82° East 483 556 33,000  Level Cleveland Center
08:13AM 42.4050 -78.6794 83° East 483 556 33,000  Level Cleveland Center
08:14AM 42.4225 -78.4933 83° East 483 556 33,000  Level Cleveland Center
08:15AM 42.4378 -78.3100 83° East 483 556 33,000  Level Cleveland Center
08:16AM 42.4550 -78.1292 83° East 483 556 33,000  Level Cleveland Center
08:17AM 42.4714 -77.9258 84° East 488 562 33,000  Level Cleveland Center
08:18AM 42.4878 -77.7422 83° East 488 562 33,000  Level Cleveland Center
08:20AM 42.5106 -77.4094 85° East 488 562 33,000  Level Boston Center
08:21AM 42.5197 -77.2411 86° East 474 545 33,000 -420 Level Boston Center
08:22AM 42.5297 -77.0531 86° East 435 501 32,100 -1,200 Descending Boston Center
08:23AM 42.5481 -76.9078 80° East 410 472 30,700 -1,440 Descending Boston Center
08:24AM 42.5639 -76.7650 81° East 393 452 29,300 -1,500 Descending Boston Center
08:25AM 42.5758 -76.6192 84° East 387 445 27,800 -1,200 Descending Boston Center
08:26AM 42.5872 -76.4733 84° East 387 445 27,000 -420 Descending Boston Center
08:27AM 42.5967 -76.3244 85° East 387 445 27,000  Level Boston Center
08:28AM 42.6100 -76.1728 83° East 392 451 27,000  Level Boston Center
08:29AM 42.6192 -76.0153 85° East 404 465 27,000  Level Boston Center
08:30AM 42.6303 -75.8578 84° East 410 472 27,000 -60 Level Boston Center
08:31AM 42.6414 -75.6947 85° East 422 486 26,900  Descending Boston Center
08:32AM 42.6500 -75.5342 86° East 422 486 27,000  Climbing Boston Center
08:33AM 42.6606 -75.3708 85° East 422 486 26,900  Descending Boston Center
08:34AM 42.6689 -75.2075 86° East 422 486 27,000  Climbing Boston Center
08:35AM 42.6811 -75.0442 84° East 422 486 26,900  Descending Boston Center
08:36AM 42.6892 -74.8722 86° East 435 501 27,000  Climbing Boston Center
08:37AM 42.7011 -74.6947 85° East 452 520 27,000  Level Boston Center
08:38AM 42.7083 -74.5281 87° East 452 520 27,000 -300 Level Boston Center
08:39AM 42.7197 -74.3561 85° East 458 527 26,500 -540 Descending Boston Center
08:40AM 42.7289 -74.1869 86° East 458 527 26,000 -300 Descending Boston Center
08:41AM 42.7375 -74.0147 86° East 458 527 26,000  Level Boston Center
08:42AM 42.7442 -73.8253 87° East 459 528 26,000  Level Boston Center
08:43AM 42.7336 -73.6583 95° East 454 522 26,000 -180 Level Boston Center
08:44AM 42.7164 -73.4942 98° East 448 516 25,700 -780 Descending Boston Center
08:45AM 42.6992 -73.3300 98° East 448 516 24,500 -900 Descending Boston Center
08:46AM 42.6814 -73.1658 98° East 442 509 24,000 -300 Descending Boston Center
08:47AM 42.6636 -72.9992 98° East 442 509 24,000 -60 Level Boston Center
08:48AM 42.6436 -72.8325 99° East 449 517 23,900 -60 Descending Boston Center
08:49AM 42.6231 -72.6686 100° East 449 517 23,900 -720 Level Boston Center
08:50AM 42.6131 -72.5133 95° East 430 495 22,500 -1,800 Descending Boston Center
08:51AM 42.5839 -72.3497 104° East 430 495 20,300 -2,220 Descending Boston Center
08:52AM 42.5647 -72.2033 100° East 411 473 18,100 -1,800 Descending Boston Center
08:53AM 42.5436 -72.0539 101° East 403 464 16,700 -1,800 Descending Boston Center
08:54AM 42.5306 -71.9075 97° East 397 457 14,500 -2,100 Descending Boston Center
08:55AM 42.5192 -71.7642 96° East 391 450 12,500 -1,800 Descending Boston Center
08:56AM 42.5058 -71.6261 97° East 379 436 11,000 -1,320 Descending Boston Center
08:57AM 42.5000 -71.5500 96° East 324 373 10,300 -1,260 Descending KA90
08:58AM 42.4833 -71.4333 101° East 286 329 8,900 -1,380 Descending KA90
08:59AM 42.4833 -71.3333 90° East 280 322 7,600 -1,260 Descending KA90
09:00AM 42.4833 -71.2333 90° East 268 308 6,400 -1,200 Descending KA90
09:01AM 42.4667 -71.1333 103° East 261 300 5,200 -840 Descending KA90
09:02AM 42.4167 -71.1500 194° South 255 293 4,900 -780 Descending KA90
09:03AM 42.3500 -71.1833 200° South 254 292 3,700 -1,020 Descending KA90
09:03AM 42.3289 -71.1989 209° Southwest 246 283 3,500 -540 Descending Boston Center
09:04AM 42.2703 -71.1664 158° South 217 250 3,000 -780 Descending Boston Center
09:05AM 42.2833 -71.1167 70° East 228 262 2,200 -1,020 Descending KA90
09:06AM 42.3167 -71.0500 56° Northeast 164 189 1,300 -900 Descending KA90
09:07AM 42.3333 -71.0167 56° Northeast 134 154 500 -840 Descending KA90
09:10AM 42.3500 -71.0000 North  Level FlightAware Approximate